createdAt,value
2023-07-05T00:01:21.521Z,17.40
2023-07-05T00:03:51.076Z,17.40
2023-07-05T00:06:19.806Z,17.40
2023-07-05T00:08:48.400Z,17.30
2023-07-05T00:11:17.214Z,17.20
2023-07-05T00:13:46.764Z,17.20
2023-07-05T00:16:15.523Z,17.20
2023-07-05T00:18:43.776Z,17.10
2023-07-05T00:21:12.921Z,17.00
2023-07-05T00:23:46.467Z,17.00
2023-07-05T00:26:16.466Z,17.00
2023-07-05T00:28:45.132Z,16.90
2023-07-05T00:31:13.824Z,17.00
2023-07-05T00:33:42.512Z,16.90
2023-07-05T00:36:10.933Z,16.90
2023-07-05T00:38:39.990Z,17.00
2023-07-05T00:41:10.490Z,17.00
2023-07-05T00:43:38.578Z,17.10
2023-07-05T00:46:21.365Z,17.10
2023-07-05T00:49:04.828Z,17.10
2023-07-05T00:51:47.755Z,17.00
2023-07-05T00:54:20.174Z,17.00
2023-07-05T00:56:54.639Z,17.10
2023-07-05T00:59:27.397Z,17.20
2023-07-05T01:02:01.951Z,17.10
2023-07-05T01:04:34.736Z,17.10
2023-07-05T01:07:03.049Z,17.20
2023-07-05T01:09:32.585Z,17.20
2023-07-05T01:12:28.331Z,17.20
2023-07-05T01:15:05.171Z,17.10
2023-07-05T01:17:44.709Z,17.00
2023-07-05T01:20:28.344Z,17.00
2023-07-05T01:23:09.258Z,16.90
2023-07-05T01:25:49.157Z,16.90
2023-07-05T01:28:34.647Z,16.90
2023-07-05T01:31:20.690Z,16.90
2023-07-05T01:34:16.642Z,17.00
2023-07-05T01:36:45.754Z,17.00
2023-07-05T01:39:15.661Z,17.00
2023-07-05T01:41:44.302Z,17.00
2023-07-05T01:44:14.681Z,17.00
2023-07-05T01:46:43.285Z,17.00
2023-07-05T01:49:35.490Z,17.00
2023-07-05T01:52:16.459Z,17.00
2023-07-05T01:55:06.975Z,16.90
2023-07-05T01:57:42.923Z,16.90
2023-07-05T02:00:18.851Z,16.90
2023-07-05T02:02:56.513Z,16.90
2023-07-05T02:05:29.330Z,17.00
2023-07-05T02:07:58.485Z,17.10
2023-07-05T02:10:28.074Z,17.00
2023-07-05T02:12:59.058Z,17.00
2023-07-05T02:15:29.245Z,16.90
2023-07-05T02:17:58.468Z,16.90
2023-07-05T02:20:47.224Z,16.80
2023-07-05T02:23:15.743Z,16.80
2023-07-05T02:25:44.751Z,16.90
2023-07-05T02:28:13.325Z,16.90
2023-07-05T02:30:42.374Z,16.90
2023-07-05T02:33:10.864Z,16.80
2023-07-05T02:35:41.208Z,16.80
2023-07-05T02:38:09.390Z,16.80
2023-07-05T02:40:38.429Z,16.80
2023-07-05T02:43:07.192Z,16.70
2023-07-05T02:45:37.599Z,16.70
2023-07-05T02:48:08.435Z,16.60
2023-07-05T02:50:40.701Z,16.60
2023-07-05T02:53:08.807Z,16.60
2023-07-05T02:55:36.933Z,16.50
2023-07-05T02:58:05.464Z,16.40
2023-07-05T03:00:34.870Z,16.40
2023-07-05T03:03:04.713Z,16.40
2023-07-05T03:05:32.977Z,16.40
2023-07-05T03:08:01.695Z,16.40
2023-07-05T03:10:30.528Z,16.40
2023-07-05T03:12:58.914Z,16.40
2023-07-05T03:15:28.310Z,16.30
2023-07-05T03:17:57.440Z,16.40
2023-07-05T03:20:26.116Z,16.40
2023-07-05T03:22:54.163Z,16.40
2023-07-05T03:25:23.298Z,16.30
2023-07-05T03:27:51.765Z,16.30
2023-07-05T03:30:20.607Z,16.20
2023-07-05T03:32:50.140Z,16.30
2023-07-05T03:35:18.621Z,16.30
2023-07-05T03:37:46.837Z,16.30
2023-07-05T03:40:15.423Z,16.20
2023-07-05T03:42:43.815Z,16.20
2023-07-05T03:45:12.095Z,16.10
2023-07-05T03:47:40.222Z,16.10
2023-07-05T03:50:09.842Z,16.10
2023-07-05T03:52:38.760Z,16.20
2023-07-05T03:55:07.338Z,16.20
2023-07-05T03:57:35.942Z,16.20
2023-07-05T04:00:04.421Z,16.20
2023-07-05T04:02:40.505Z,16.30
2023-07-05T04:05:08.748Z,16.20
2023-07-05T04:07:37.835Z,16.30
2023-07-05T04:10:06.671Z,16.30
2023-07-05T04:12:35.204Z,16.40
2023-07-05T04:15:03.673Z,16.50
2023-07-05T04:17:34.413Z,16.60
2023-07-05T04:20:04.488Z,16.80
2023-07-05T04:22:34.496Z,16.80
2023-07-05T04:25:03.414Z,17.00
2023-07-05T04:27:32.759Z,17.00
2023-07-05T04:30:01.440Z,17.10
2023-07-05T04:32:34.853Z,17.20
2023-07-05T04:35:03.624Z,17.20
2023-07-05T04:37:37.674Z,17.20
2023-07-05T04:40:07.244Z,17.30
2023-07-05T04:42:36.344Z,17.40
2023-07-05T04:45:04.770Z,17.70
2023-07-05T04:47:33.386Z,18.10
2023-07-05T04:50:02.142Z,18.40
2023-07-05T04:52:31.530Z,18.60
2023-07-05T04:55:00.545Z,18.80
2023-07-05T04:57:32.755Z,18.80
2023-07-05T05:00:07.098Z,18.20
2023-07-05T05:02:36.363Z,18.00
2023-07-05T05:05:05.131Z,18.40
2023-07-05T05:07:34.841Z,18.20
2023-07-05T05:10:04.629Z,18.10
2023-07-05T05:12:34.731Z,18.40
2023-07-05T05:15:03.560Z,18.80
2023-07-05T05:17:32.930Z,18.60
2023-07-05T05:20:01.693Z,18.90
2023-07-05T05:22:33.582Z,19.20
2023-07-05T05:25:01.772Z,19.30
2023-07-05T05:27:32.458Z,19.50
2023-07-05T05:30:01.351Z,19.80
2023-07-05T05:32:34.828Z,19.70
2023-07-05T05:35:03.588Z,19.60
2023-07-05T05:37:32.438Z,19.60
2023-07-05T05:40:01.090Z,19.80
2023-07-05T05:42:32.791Z,20.10
2023-07-05T05:45:01.301Z,20.30
2023-07-05T05:47:33.246Z,20.40
2023-07-05T05:50:02.805Z,20.70
2023-07-05T05:52:33.804Z,20.70
2023-07-05T05:55:04.337Z,20.90
2023-07-05T05:57:32.935Z,21.00
2023-07-05T06:00:01.568Z,20.80
2023-07-05T06:02:34.785Z,21.00
2023-07-05T06:05:05.335Z,21.10
2023-07-05T06:07:34.217Z,21.00
2023-07-05T06:10:03.551Z,21.20
2023-07-05T06:12:33.536Z,21.60
2023-07-05T06:15:04.013Z,21.60
2023-07-05T06:17:33.922Z,21.70
2023-07-05T06:20:02.497Z,21.10
2023-07-05T06:22:32.738Z,21.40
2023-07-05T06:25:01.838Z,21.40
2023-07-05T06:27:36.034Z,21.70
2023-07-05T06:30:05.917Z,21.90
2023-07-05T06:32:37.046Z,22.40
2023-07-05T06:35:06.141Z,22.40
2023-07-05T06:37:34.953Z,22.40
2023-07-05T06:40:04.581Z,22.60
2023-07-05T06:42:33.339Z,23.00
2023-07-05T06:45:09.948Z,23.00
2023-07-05T06:47:39.354Z,23.00
2023-07-05T06:50:09.230Z,23.30
2023-07-05T06:52:38.659Z,23.30
2023-07-05T06:55:08.770Z,23.20
2023-07-05T06:57:37.837Z,23.50
2023-07-05T07:00:08.475Z,23.80
2023-07-05T07:02:37.498Z,23.40
2023-07-05T07:05:06.700Z,23.50
2023-07-05T07:07:36.078Z,23.90
2023-07-05T07:10:05.042Z,23.90
2023-07-05T07:12:33.914Z,24.30
2023-07-05T07:15:02.315Z,24.30
2023-07-05T07:17:34.237Z,24.50
2023-07-05T07:20:02.983Z,24.60
2023-07-05T07:22:33.647Z,24.30
2023-07-05T07:25:03.984Z,24.60
2023-07-05T07:27:33.129Z,25.10
2023-07-05T07:30:01.747Z,25.30
2023-07-05T07:32:34.494Z,25.50
2023-07-05T07:35:03.536Z,25.60
2023-07-05T07:37:33.707Z,24.30
2023-07-05T07:40:01.997Z,24.80
2023-07-05T07:42:32.981Z,24.30
2023-07-05T07:45:02.661Z,24.90
2023-07-05T07:47:33.611Z,24.90
2023-07-05T07:50:01.883Z,24.90
2023-07-05T07:52:31.901Z,24.80
2023-07-05T07:55:00.782Z,25.40
2023-07-05T07:57:31.934Z,25.80
2023-07-05T08:00:00.644Z,26.50
2023-07-05T08:02:30.501Z,26.70
2023-07-05T08:04:58.768Z,26.70
2023-07-05T08:07:27.490Z,26.70
2023-07-05T08:09:56.904Z,26.70
2023-07-05T08:12:26.170Z,27.00
2023-07-05T08:14:54.741Z,27.10
2023-07-05T08:17:23.363Z,27.50
2023-07-05T08:19:51.512Z,27.30
2023-07-05T08:22:19.976Z,27.30
2023-07-05T08:24:49.066Z,26.80
2023-07-05T08:27:18.116Z,26.70
2023-07-05T08:29:46.610Z,26.90
2023-07-05T08:32:15.045Z,26.90
2023-07-05T08:34:43.870Z,27.20
2023-07-05T08:37:13.013Z,27.60
2023-07-05T08:39:41.846Z,27.30
2023-07-05T08:42:17.943Z,27.40
2023-07-05T08:45:21.366Z,27.80
2023-07-05T08:47:57.657Z,28.00
2023-07-05T08:50:34.415Z,27.90
2023-07-05T08:53:16.328Z,28.30
2023-07-05T08:56:05.785Z,27.80
2023-07-05T08:58:34.413Z,27.60
2023-07-05T09:01:05.929Z,27.60
2023-07-05T09:03:35.099Z,27.20
2023-07-05T09:06:27.091Z,27.20
2023-07-05T09:09:32.587Z,27.40
2023-07-05T09:12:14.318Z,27.30
2023-07-05T09:14:59.044Z,27.80
2023-07-05T09:17:30.602Z,28.10
2023-07-05T09:20:15.922Z,28.00
2023-07-05T09:22:45.955Z,28.50
2023-07-05T09:25:18.034Z,27.90
2023-07-05T09:27:52.894Z,27.20
2023-07-05T09:30:26.498Z,27.50
2023-07-05T09:33:12.024Z,27.30
2023-07-05T09:35:45.838Z,28.10
2023-07-05T09:38:30.637Z,28.10
2023-07-05T09:41:08.475Z,27.80
2023-07-05T09:43:38.048Z,28.00
2023-07-05T09:46:21.755Z,28.30
2023-07-05T09:48:50.794Z,28.60
2023-07-05T09:51:20.436Z,27.90
2023-07-05T09:54:05.241Z,27.90
2023-07-05T09:56:34.092Z,28.00
2023-07-05T09:59:14.881Z,28.00
2023-07-05T10:01:49.034Z,28.10
2023-07-05T10:04:17.869Z,28.10
2023-07-05T10:06:51.826Z,28.10
2023-07-05T10:09:24.754Z,28.20
2023-07-05T10:11:59.445Z,27.40
2023-07-05T10:14:34.221Z,27.00
2023-07-05T10:17:12.732Z,27.30
2023-07-05T10:19:54.618Z,27.80
2023-07-05T10:22:34.184Z,28.10
2023-07-05T10:25:16.314Z,27.40
2023-07-05T10:27:50.374Z,27.70
2023-07-05T10:30:21.217Z,28.30
2023-07-05T10:33:09.614Z,28.60
2023-07-05T10:35:54.885Z,28.70
2023-07-05T10:38:51.124Z,28.20
2023-07-05T10:41:30.897Z,28.10
2023-07-05T10:44:00.153Z,27.70
2023-07-05T10:46:28.776Z,27.70
2023-07-05T10:48:58.931Z,27.90
2023-07-05T10:51:35.281Z,28.40
2023-07-05T10:54:15.704Z,29.00
2023-07-05T10:56:46.179Z,29.10
2023-07-05T10:59:41.900Z,28.60
2023-07-05T11:02:22.830Z,28.70
2023-07-05T11:04:55.255Z,28.70
2023-07-05T11:07:24.953Z,28.70
2023-07-05T11:09:54.184Z,29.10
2023-07-05T11:12:28.619Z,29.30
2023-07-05T11:15:00.012Z,28.90
2023-07-05T11:17:37.752Z,29.20
2023-07-05T11:20:34.720Z,29.40
2023-07-05T11:23:04.554Z,29.10
2023-07-05T11:25:52.175Z,29.30
2023-07-05T11:28:32.915Z,28.80
2023-07-05T11:31:02.721Z,28.70
2023-07-05T11:33:33.637Z,29.10
2023-07-05T11:36:25.969Z,29.40
2023-07-05T11:38:55.479Z,29.40
2023-07-05T11:41:33.033Z,29.50
2023-07-05T11:44:04.449Z,29.80
2023-07-05T11:46:39.167Z,29.90
2023-07-05T11:49:23.393Z,29.60
2023-07-05T11:51:58.738Z,29.70
2023-07-05T11:54:36.714Z,29.80
2023-07-05T11:57:09.791Z,29.70
2023-07-05T12:00:10.120Z,29.70
2023-07-05T12:02:48.433Z,30.00
2023-07-05T12:05:20.955Z,30.10
2023-07-05T12:07:58.068Z,29.80
2023-07-05T12:10:30.748Z,29.90
2023-07-05T12:13:00.039Z,30.00
2023-07-05T12:15:29.586Z,30.00
2023-07-05T12:17:58.398Z,30.00
2023-07-05T12:20:42.056Z,29.70
2023-07-05T12:23:16.176Z,29.80
2023-07-05T12:25:59.037Z,30.20
2023-07-05T12:28:34.273Z,30.40
2023-07-05T12:31:12.027Z,30.10
2023-07-05T12:33:41.765Z,29.60
2023-07-05T12:36:13.081Z,29.80
2023-07-05T12:38:44.167Z,29.90
2023-07-05T12:41:23.784Z,30.00
2023-07-05T12:44:04.955Z,29.80
2023-07-05T12:46:36.113Z,29.90
2023-07-05T12:49:12.374Z,30.00
2023-07-05T12:51:52.433Z,30.10
2023-07-05T12:54:22.327Z,30.10
2023-07-05T12:56:52.407Z,30.20
2023-07-05T12:59:35.067Z,29.90
2023-07-05T13:02:16.090Z,29.50
2023-07-05T13:04:46.249Z,29.70
2023-07-05T13:07:24.270Z,29.50
2023-07-05T13:10:00.212Z,29.60
2023-07-05T13:12:45.318Z,29.70
2023-07-05T13:15:14.274Z,29.70
2023-07-05T13:17:43.971Z,29.80
2023-07-05T13:20:21.867Z,29.70
2023-07-05T13:22:59.897Z,29.70
2023-07-05T13:25:31.924Z,29.40
2023-07-05T13:28:02.365Z,29.50
2023-07-05T13:30:31.575Z,29.40
2023-07-05T13:33:02.488Z,29.40
2023-07-05T13:35:33.820Z,29.80
2023-07-05T13:38:03.534Z,30.10
2023-07-05T13:40:33.039Z,30.00
2023-07-05T13:43:04.908Z,30.00
2023-07-05T13:45:35.529Z,29.90
2023-07-05T13:48:05.323Z,30.10
2023-07-05T13:50:35.348Z,29.90
2023-07-05T13:53:05.694Z,29.80
2023-07-05T13:55:35.681Z,30.00
2023-07-05T13:58:08.906Z,30.20
2023-07-05T14:00:38.748Z,30.30
2023-07-05T14:03:07.812Z,30.20
2023-07-05T14:05:36.411Z,30.10
2023-07-05T14:08:07.716Z,30.20
2023-07-05T14:10:36.796Z,30.30
2023-07-05T14:13:05.929Z,30.50
2023-07-05T14:15:41.252Z,30.50
2023-07-05T14:18:20.526Z,30.60
2023-07-05T14:20:49.635Z,30.50
2023-07-05T14:23:18.372Z,30.50
2023-07-05T14:25:50.491Z,30.60
2023-07-05T14:28:19.210Z,30.60
2023-07-05T14:30:49.820Z,30.60
2023-07-05T14:33:21.161Z,30.50
2023-07-05T14:35:49.724Z,30.50
2023-07-05T14:38:19.145Z,30.40
2023-07-05T14:40:49.290Z,30.40
2023-07-05T14:43:18.367Z,30.40
2023-07-05T14:45:47.843Z,30.40
2023-07-05T14:48:17.209Z,30.40
2023-07-05T14:50:47.383Z,30.30
2023-07-05T14:53:18.351Z,30.40
2023-07-05T14:55:48.591Z,30.40
2023-07-05T14:58:18.223Z,30.40
2023-07-05T15:00:46.762Z,30.20
2023-07-05T15:03:30.166Z,30.20
2023-07-05T15:06:03.692Z,30.20
2023-07-05T15:08:36.096Z,30.20
2023-07-05T15:11:05.634Z,30.30
2023-07-05T15:13:36.912Z,30.20
2023-07-05T15:16:06.698Z,30.30
2023-07-05T15:18:35.417Z,30.30
2023-07-05T15:21:04.616Z,30.20
2023-07-05T15:23:33.457Z,30.30
2023-07-05T15:26:06.062Z,30.20
2023-07-05T15:28:35.807Z,30.20
2023-07-05T15:31:04.563Z,30.10
2023-07-05T15:33:33.206Z,30.00
2023-07-05T15:36:02.204Z,30.10
2023-07-05T15:38:31.198Z,30.10
2023-07-05T15:41:09.837Z,30.10
2023-07-05T15:43:39.111Z,29.80
2023-07-05T15:46:11.783Z,29.70
2023-07-05T15:48:42.173Z,29.80
2023-07-05T15:51:13.098Z,29.80
2023-07-05T15:53:42.138Z,29.70
2023-07-05T15:56:11.275Z,29.60
2023-07-05T15:58:44.817Z,29.60
2023-07-05T16:01:22.700Z,29.70
2023-07-05T16:03:54.335Z,29.30
2023-07-05T16:06:23.808Z,29.20
2023-07-05T16:08:52.959Z,29.20
2023-07-05T16:11:22.431Z,29.20
2023-07-05T16:13:51.016Z,29.30
2023-07-05T16:16:19.815Z,29.30
2023-07-05T16:18:48.316Z,28.90
2023-07-05T16:21:18.988Z,28.60
2023-07-05T16:23:48.612Z,28.60
2023-07-05T16:26:17.823Z,28.60
2023-07-05T16:28:45.981Z,28.60
2023-07-05T16:31:15.258Z,28.60
2023-07-05T16:33:47.133Z,28.70
2023-07-05T16:36:15.659Z,28.80
2023-07-05T16:38:46.136Z,28.90
2023-07-05T16:41:15.158Z,28.90
2023-07-05T16:43:44.177Z,28.90
2023-07-05T16:46:12.998Z,29.00
2023-07-05T16:48:41.782Z,29.20
2023-07-05T16:51:11.952Z,29.20
2023-07-05T16:53:41.879Z,29.20
2023-07-05T16:56:11.434Z,29.20
2023-07-05T16:58:40.329Z,29.30
2023-07-05T17:01:11.613Z,29.10
2023-07-05T17:03:42.318Z,29.00
2023-07-05T17:06:12.098Z,28.90
2023-07-05T17:08:41.121Z,29.00
2023-07-05T17:11:11.749Z,29.00
2023-07-05T17:13:39.977Z,28.90
2023-07-05T17:16:10.225Z,28.80
2023-07-05T17:18:39.429Z,28.70
2023-07-05T17:21:11.408Z,28.50
2023-07-05T17:23:39.967Z,28.50
2023-07-05T17:26:14.211Z,28.40
2023-07-05T17:28:46.036Z,28.40
2023-07-05T17:31:22.254Z,28.60
2023-07-05T17:33:54.180Z,28.50
2023-07-05T17:36:25.485Z,28.60
2023-07-05T17:38:57.479Z,28.10
2023-07-05T17:41:26.502Z,28.00
2023-07-05T17:43:55.320Z,28.20
2023-07-05T17:46:39.743Z,28.10
2023-07-05T17:49:10.398Z,27.90
2023-07-05T17:51:39.052Z,27.80
2023-07-05T17:54:09.034Z,27.80
2023-07-05T17:56:38.093Z,27.60
2023-07-05T17:59:06.207Z,27.60
2023-07-05T18:01:35.310Z,27.40
2023-07-05T18:04:03.535Z,27.30
2023-07-05T18:06:32.222Z,27.30
2023-07-05T18:09:01.443Z,27.10
2023-07-05T18:11:29.761Z,27.00
2023-07-05T18:13:57.966Z,27.00
2023-07-05T18:16:27.338Z,27.00
2023-07-05T18:18:56.197Z,26.80
2023-07-05T18:21:28.925Z,26.70
2023-07-05T18:23:57.213Z,26.70
2023-07-05T18:26:26.388Z,26.70
2023-07-05T18:28:55.385Z,26.60
2023-07-05T18:31:24.188Z,26.50
2023-07-05T18:33:53.062Z,26.50
2023-07-05T18:36:22.294Z,26.40
2023-07-05T18:38:52.511Z,26.40
2023-07-05T18:41:23.062Z,26.30
2023-07-05T18:43:52.275Z,26.20
2023-07-05T18:46:21.060Z,26.20
2023-07-05T18:48:50.187Z,26.20
2023-07-05T18:51:19.007Z,26.20
2023-07-05T18:53:47.729Z,26.10
2023-07-05T18:56:20.858Z,26.10
2023-07-05T18:58:49.873Z,26.10
2023-07-05T19:01:21.344Z,26.00
2023-07-05T19:03:51.950Z,25.90
2023-07-05T19:06:24.448Z,25.80
2023-07-05T19:08:56.734Z,25.80
2023-07-05T19:11:28.294Z,25.60
2023-07-05T19:13:56.846Z,25.60
2023-07-05T19:16:27.570Z,25.50
2023-07-05T19:18:57.502Z,25.50
2023-07-05T19:21:25.906Z,25.40
2023-07-05T19:23:55.045Z,25.40
2023-07-05T19:26:23.306Z,25.40
2023-07-05T19:28:53.238Z,25.30
2023-07-05T19:31:27.550Z,25.20
2023-07-05T19:33:56.844Z,25.10
2023-07-05T19:36:27.663Z,25.00
2023-07-05T19:38:57.100Z,25.00
2023-07-05T19:41:25.761Z,24.90
2023-07-05T19:43:54.486Z,24.90
2023-07-05T19:46:26.549Z,24.80
2023-07-05T19:48:58.992Z,24.80
2023-07-05T19:51:27.674Z,24.80
2023-07-05T19:53:56.331Z,24.60
2023-07-05T19:56:25.465Z,24.40
2023-07-05T19:58:53.645Z,24.20
2023-07-05T20:01:22.457Z,24.20
2023-07-05T20:03:50.895Z,24.10
2023-07-05T20:06:21.198Z,24.10
2023-07-05T20:08:53.942Z,24.10
2023-07-05T20:11:24.783Z,24.10
2023-07-05T20:13:53.757Z,24.00
2023-07-05T20:16:22.983Z,23.80
2023-07-05T20:18:52.171Z,23.80
2023-07-05T20:21:20.484Z,23.70
2023-07-05T20:23:49.484Z,23.70
2023-07-05T20:26:18.177Z,23.70
2023-07-05T20:28:47.624Z,23.60
2023-07-05T20:31:16.438Z,23.60
2023-07-05T20:33:45.666Z,23.50
2023-07-05T20:36:16.708Z,23.50
2023-07-05T20:38:44.988Z,23.40
2023-07-05T20:41:14.633Z,23.30
2023-07-05T20:43:42.882Z,23.30
2023-07-05T20:46:13.348Z,23.10
2023-07-05T20:48:42.647Z,22.90
2023-07-05T20:51:18.947Z,22.90
2023-07-05T20:53:47.401Z,22.80
2023-07-05T20:56:18.680Z,22.80
2023-07-05T20:58:48.229Z,22.90
2023-07-05T21:01:21.342Z,22.70
2023-07-05T21:03:54.673Z,22.70
2023-07-05T21:06:23.835Z,22.60
2023-07-05T21:08:52.543Z,22.40
2023-07-05T21:11:21.991Z,22.40
2023-07-05T21:13:50.766Z,22.30
2023-07-05T21:16:20.273Z,22.20
2023-07-05T21:18:48.841Z,22.10
2023-07-05T21:21:18.505Z,22.00
2023-07-05T21:23:48.149Z,21.90
2023-07-05T21:26:17.344Z,21.70
2023-07-05T21:28:45.964Z,21.60
2023-07-05T21:31:14.720Z,21.60
2023-07-05T21:33:43.574Z,21.50
2023-07-05T21:36:12.362Z,21.30
2023-07-05T21:38:41.685Z,21.30
2023-07-05T21:41:10.185Z,21.20
2023-07-05T21:43:39.737Z,21.10
2023-07-05T21:46:08.418Z,21.00
2023-07-05T21:48:37.651Z,21.00
2023-07-05T21:51:09.448Z,21.10
2023-07-05T21:53:41.193Z,21.20
2023-07-05T21:56:10.090Z,21.20
2023-07-05T21:58:38.344Z,21.20
2023-07-05T22:01:08.013Z,21.20
2023-07-05T22:03:38.105Z,21.10
2023-07-05T22:06:08.218Z,21.10
2023-07-05T22:08:37.158Z,20.90
2023-07-05T22:11:07.127Z,20.80
2023-07-05T22:13:36.360Z,20.90
2023-07-05T22:16:05.087Z,20.70
2023-07-05T22:18:34.790Z,20.70
2023-07-05T22:21:04.058Z,20.60
2023-07-05T22:23:32.750Z,20.60
2023-07-05T22:26:01.560Z,20.60
2023-07-05T22:28:30.774Z,20.60
2023-07-05T22:30:59.738Z,20.60
2023-07-05T22:33:29.085Z,20.60
2023-07-05T22:36:04.563Z,20.40
2023-07-05T22:38:32.818Z,20.20
2023-07-05T22:41:01.243Z,20.10
2023-07-05T22:43:33.627Z,20.00
2023-07-05T22:46:04.174Z,20.10
2023-07-05T22:48:35.727Z,20.10
2023-07-05T22:51:05.550Z,19.90
2023-07-05T22:53:34.871Z,19.90
2023-07-05T22:56:04.402Z,19.80
2023-07-05T22:58:33.227Z,19.80
2023-07-05T23:01:06.637Z,19.70
2023-07-05T23:03:37.323Z,19.70
2023-07-05T23:06:11.532Z,19.60
2023-07-05T23:08:42.030Z,19.60
2023-07-05T23:11:15.631Z,19.60
2023-07-05T23:13:46.115Z,19.60
2023-07-05T23:16:17.256Z,19.60
2023-07-05T23:18:48.273Z,19.70
2023-07-05T23:21:18.466Z,19.70
2023-07-05T23:23:50.867Z,19.70
2023-07-05T23:26:19.869Z,19.80
2023-07-05T23:28:50.065Z,19.80
2023-07-05T23:31:27.268Z,19.70
2023-07-05T23:33:56.312Z,19.70
2023-07-05T23:36:25.304Z,19.70
2023-07-05T23:38:55.144Z,19.70
2023-07-05T23:41:28.453Z,19.60
2023-07-05T23:43:56.591Z,19.50
2023-07-05T23:46:42.748Z,19.50
2023-07-05T23:49:12.856Z,19.60
2023-07-05T23:51:43.945Z,19.50
2023-07-05T23:54:13.390Z,19.50
2023-07-05T23:56:47.752Z,19.40
2023-07-05T23:59:18.450Z,19.40
